UCA4302 KBTV-KIAD
Flight info
| Callsign | UCA4302 |
|---|---|
| Flight time | 1h 21m |
| Altitude | 34000 |
| Route | DENYU ALB HYPER9 |
| Aircraft | E45X/M-SABDFGRW/S |
Departure
| Time | 2026-05-07 21:43 |
|---|---|
| Airport | Patrick Leahy Burlington International Airport (KBTV) |
Arrival
| Time | 2026-05-07 23:05 |
|---|---|
| Airport | Washington Dulles International Airport (KIAD) |
| Time | Latitude | Longitude | Altitude | Speed | Heading |
|---|---|---|---|---|---|
| 2026-05-07 21:27 | 44.47066 | -73.15440 | 331 ft | 0 kts | 197° |
| 2026-05-07 21:33 | 44.47065 | -73.15440 | 331 ft | 0 kts | 197° |
| 2026-05-07 21:33 | 44.47066 | -73.15440 | 331 ft | 1 kts | 197° |
| 2026-05-07 21:33 | 44.47080 | -73.15434 | 331 ft | 2 kts | 197° |
| 2026-05-07 21:33 | 44.47094 | -73.15427 | 331 ft | 2 kts | 203° |
| 2026-05-07 21:34 | 44.47108 | -73.15418 | 331 ft | 2 kts | 211° |
| 2026-05-07 21:34 | 44.47120 | -73.15407 | 331 ft | 2 kts | 214° |
| 2026-05-07 21:34 | 44.47132 | -73.15396 | 331 ft | 0 kts | 213° |
| 2026-05-07 21:34 | 44.47141 | -73.15389 | 331 ft | 2 kts | 197° |
| 2026-05-07 21:35 | 44.47156 | -73.15386 | 331 ft | 1 kts | 171° |
| 2026-05-07 21:35 | 44.47159 | -73.15387 | 331 ft | 0 kts | 169° |
| 2026-05-07 21:37 | 44.47155 | -73.15385 | 331 ft | 1 kts | 163° |
| 2026-05-07 21:37 | 44.47128 | -73.15376 | 331 ft | 6 kts | 170° |
| 2026-05-07 21:37 | 44.47085 | -73.15363 | 331 ft | 3 kts | 180° |
| 2026-05-07 21:38 | 44.47050 | -73.15359 | 332 ft | 6 kts | 174° |
| 2026-05-07 21:38 | 44.47000 | -73.15348 | 332 ft | 8 kts | 172° |
| 2026-05-07 21:38 | 44.46937 | -73.15335 | 332 ft | 10 kts | 171° |
| 2026-05-07 21:38 | 44.46901 | -73.15258 | 332 ft | 12 kts | 82° |
| 2026-05-07 21:39 | 44.46949 | -73.15140 | 332 ft | 15 kts | 45° |
| 2026-05-07 21:39 | 44.46923 | -73.15033 | 332 ft | 13 kts | 131° |
| 2026-05-07 21:39 | 44.46855 | -73.14922 | 332 ft | 16 kts | 131° |
| 2026-05-07 21:39 | 44.46788 | -73.14813 | 332 ft | 14 kts | 131° |
| 2026-05-07 21:40 | 44.46717 | -73.14698 | 331 ft | 15 kts | 130° |
| 2026-05-07 21:40 | 44.46656 | -73.14600 | 331 ft | 13 kts | 131° |
| 2026-05-07 21:40 | 44.46586 | -73.14487 | 330 ft | 15 kts | 131° |
| 2026-05-07 21:40 | 44.46507 | -73.14359 | 328 ft | 19 kts | 130° |
| 2026-05-07 21:41 | 44.46440 | -73.14253 | 327 ft | 0 kts | 131° |
| 2026-05-07 21:41 | 44.46441 | -73.14256 | 327 ft | 2 kts | 131° |
| 2026-05-07 21:41 | 44.46466 | -73.14294 | 328 ft | 6 kts | 127° |
| 2026-05-07 21:41 | 44.46473 | -73.14323 | 328 ft | 0 kts | 65° |
| 2026-05-07 21:42 | 44.46495 | -73.14296 | 328 ft | 7 kts | 41° |
| 2026-05-07 21:42 | 44.46543 | -73.14239 | 328 ft | 10 kts | 39° |
| 2026-05-07 21:42 | 44.46602 | -73.14229 | 329 ft | 9 kts | 326° |
| 2026-05-07 21:42 | 44.46651 | -73.14298 | 329 ft | 12 kts | 310° |
| 2026-05-07 21:43 | 44.46827 | -73.14582 | 332 ft | 77 kts | 311° |
| 2026-05-07 21:43 | 44.47339 | -73.15406 | 334 ft | 142 kts | 311° |
| 2026-05-07 21:43 | 44.48079 | -73.16626 | 578 ft | 179 kts | 309° |
| 2026-05-07 21:43 | 44.48949 | -73.18085 | 1158 ft | 208 kts | 310° |
| 2026-05-07 21:44 | 44.49851 | -73.19722 | 2145 ft | 218 kts | 292° |
| 2026-05-07 21:44 | 44.50099 | -73.21743 | 3424 ft | 210 kts | 276° |
| 2026-05-07 21:44 | 44.50216 | -73.23761 | 4375 ft | 213 kts | 276° |
| 2026-05-07 21:44 | 44.50343 | -73.25833 | 5280 ft | 217 kts | 276° |
| 2026-05-07 21:45 | 44.50260 | -73.27962 | 6226 ft | 222 kts | 252° |
| 2026-05-07 21:45 | 44.49301 | -73.29636 | 7153 ft | 232 kts | 217° |
| 2026-05-07 21:45 | 44.47691 | -73.30241 | 8042 ft | 249 kts | 183° |
| 2026-05-07 21:45 | 44.45969 | -73.29898 | 8970 ft | 252 kts | 176° |
| 2026-05-07 21:46 | 44.44204 | -73.29525 | 9824 ft | 254 kts | 184° |
| 2026-05-07 21:46 | 44.42473 | -73.29959 | 10230 ft | 262 kts | 212° |
| 2026-05-07 21:46 | 44.40855 | -73.31416 | 10288 ft | 291 kts | 220° |
| 2026-05-07 21:46 | 44.39147 | -73.33189 | 10700 ft | 308 kts | 221° |
| 2026-05-07 21:47 | 44.37423 | -73.35027 | 11631 ft | 308 kts | 222° |
| 2026-05-07 21:47 | 44.35734 | -73.36840 | 12543 ft | 308 kts | 223° |
| 2026-05-07 21:47 | 44.34021 | -73.38680 | 13349 ft | 310 kts | 223° |
| 2026-05-07 21:47 | 44.32288 | -73.40540 | 14153 ft | 312 kts | 223° |
| 2026-05-07 21:48 | 44.30531 | -73.42425 | 14999 ft | 314 kts | 223° |
| 2026-05-07 21:48 | 44.28791 | -73.44289 | 15705 ft | 317 kts | 223° |
| 2026-05-07 21:48 | 44.27024 | -73.46182 | 16520 ft | 317 kts | 223° |
| 2026-05-07 21:48 | 44.25237 | -73.48093 | 17281 ft | 319 kts | 223° |
| 2026-05-07 21:49 | 44.23468 | -73.49985 | 18023 ft | 320 kts | 223° |
| 2026-05-07 21:49 | 44.21663 | -73.51914 | 18660 ft | 325 kts | 223° |
| 2026-05-07 21:49 | 44.19871 | -73.53825 | 19377 ft | 325 kts | 224° |
| 2026-05-07 21:49 | 44.18068 | -73.55748 | 20193 ft | 324 kts | 223° |
| 2026-05-07 21:50 | 44.16227 | -73.57711 | 20836 ft | 326 kts | 224° |
| 2026-05-07 21:50 | 44.14408 | -73.59647 | 21527 ft | 327 kts | 223° |
| 2026-05-07 21:50 | 44.12600 | -73.61571 | 22230 ft | 327 kts | 224° |
| 2026-05-07 21:50 | 44.10757 | -73.63529 | 22821 ft | 330 kts | 224° |
| 2026-05-07 21:51 | 44.08934 | -73.65466 | 23453 ft | 330 kts | 223° |
| 2026-05-07 21:51 | 44.07096 | -73.67416 | 24066 ft | 332 kts | 223° |
| 2026-05-07 21:51 | 44.05256 | -73.69366 | 24692 ft | 331 kts | 223° |
| 2026-05-07 21:51 | 44.03388 | -73.71348 | 25233 ft | 334 kts | 223° |
| 2026-05-07 21:52 | 44.01542 | -73.73302 | 25794 ft | 334 kts | 223° |
| 2026-05-07 21:52 | 43.99697 | -73.75252 | 26485 ft | 330 kts | 224° |
| 2026-05-07 21:52 | 43.97850 | -73.77205 | 27215 ft | 326 kts | 224° |
| 2026-05-07 21:52 | 43.96041 | -73.79116 | 27791 ft | 325 kts | 224° |
| 2026-05-07 21:53 | 43.94241 | -73.81017 | 28348 ft | 324 kts | 224° |
| 2026-05-07 21:53 | 43.92377 | -73.82893 | 28895 ft | 328 kts | 220° |
| 2026-05-07 21:53 | 43.90282 | -73.84281 | 29533 ft | 336 kts | 210° |
| 2026-05-07 21:53 | 43.87970 | -73.85076 | 30128 ft | 347 kts | 200° |
| 2026-05-07 21:54 | 43.85510 | -73.85237 | 30631 ft | 362 kts | 190° |
| 2026-05-07 21:54 | 43.83144 | -73.84924 | 31113 ft | 364 kts | 188° |
| 2026-05-07 21:54 | 43.80495 | -73.84706 | 31542 ft | 361 kts | 189° |
| 2026-05-07 21:54 | 43.77970 | -73.84561 | 31972 ft | 360 kts | 190° |
| 2026-05-07 21:55 | 43.75515 | -73.84445 | 32418 ft | 359 kts | 190° |
| 2026-05-07 21:55 | 43.72973 | -73.84335 | 32824 ft | 359 kts | 189° |
| 2026-05-07 21:55 | 43.70445 | -73.84227 | 33268 ft | 357 kts | 190° |
| 2026-05-07 21:55 | 43.67938 | -73.84122 | 33678 ft | 357 kts | 190° |
| 2026-05-07 21:56 | 43.65388 | -73.84019 | 33818 ft | 363 kts | 189° |
| 2026-05-07 21:56 | 43.62805 | -73.83913 | 33826 ft | 368 kts | 189° |
| 2026-05-07 21:56 | 43.57582 | -73.83696 | 33841 ft | 376 kts | 189° |
| 2026-05-07 21:57 | 43.52231 | -73.83474 | 33837 ft | 382 kts | 189° |
| 2026-05-07 21:57 | 43.46847 | -73.83252 | 33838 ft | 385 kts | 189° |
| 2026-05-07 21:58 | 43.41409 | -73.83028 | 33851 ft | 388 kts | 189° |
| 2026-05-07 21:58 | 43.35923 | -73.82803 | 33843 ft | 390 kts | 189° |
| 2026-05-07 21:59 | 43.30417 | -73.82577 | 33834 ft | 389 kts | 189° |
| 2026-05-07 21:59 | 43.24977 | -73.82355 | 33845 ft | 388 kts | 189° |
| 2026-05-07 22:00 | 43.19523 | -73.82133 | 33844 ft | 387 kts | 189° |
| 2026-05-07 22:00 | 43.14093 | -73.81911 | 33841 ft | 387 kts | 189° |
| 2026-05-07 22:01 | 43.08654 | -73.81690 | 33846 ft | 386 kts | 189° |
| 2026-05-07 22:01 | 43.03240 | -73.81471 | 33847 ft | 386 kts | 189° |
| 2026-05-07 22:02 | 42.97797 | -73.81250 | 33842 ft | 386 kts | 189° |
| 2026-05-07 22:02 | 42.92361 | -73.81030 | 33845 ft | 386 kts | 189° |
| 2026-05-07 22:03 | 42.87031 | -73.80815 | 33852 ft | 386 kts | 189° |
| 2026-05-07 22:03 | 42.81722 | -73.80601 | 33856 ft | 387 kts | 189° |
| 2026-05-07 22:04 | 42.76388 | -73.80386 | 33854 ft | 387 kts | 189° |
| 2026-05-07 22:04 | 42.71174 | -73.80374 | 33855 ft | 384 kts | 192° |
| 2026-05-07 22:05 | 42.65743 | -73.80476 | 33858 ft | 386 kts | 192° |
| 2026-05-07 22:05 | 42.60284 | -73.80572 | 33853 ft | 387 kts | 192° |
| 2026-05-07 22:06 | 42.54832 | -73.80668 | 33849 ft | 389 kts | 192° |
| 2026-05-07 22:06 | 42.49348 | -73.80763 | 33846 ft | 391 kts | 192° |
| 2026-05-07 22:07 | 42.43880 | -73.80858 | 33841 ft | 391 kts | 192° |
| 2026-05-07 22:07 | 42.38352 | -73.80954 | 33837 ft | 391 kts | 192° |
| 2026-05-07 22:08 | 42.32865 | -73.81049 | 33839 ft | 391 kts | 192° |
| 2026-05-07 22:08 | 42.27368 | -73.81145 | 33842 ft | 391 kts | 192° |
| 2026-05-07 22:09 | 42.21877 | -73.81239 | 33851 ft | 391 kts | 192° |
| 2026-05-07 22:09 | 42.16402 | -73.81334 | 33854 ft | 391 kts | 192° |
| 2026-05-07 22:10 | 42.10879 | -73.81429 | 33853 ft | 391 kts | 192° |
| 2026-05-07 22:10 | 42.05390 | -73.81523 | 33853 ft | 391 kts | 192° |
| 2026-05-07 22:11 | 41.99897 | -73.81618 | 33855 ft | 391 kts | 193° |
| 2026-05-07 22:11 | 41.94397 | -73.81712 | 33851 ft | 391 kts | 193° |
| 2026-05-07 22:12 | 41.88905 | -73.81805 | 33855 ft | 391 kts | 193° |
| 2026-05-07 22:12 | 41.84136 | -73.81887 | 33852 ft | 391 kts | 192° |
| 2026-05-07 22:13 | 41.78735 | -73.81979 | 33843 ft | 392 kts | 193° |
| 2026-05-07 22:13 | 41.73849 | -73.82439 | 33845 ft | 376 kts | 203° |
| 2026-05-07 22:14 | 41.71360 | -73.83463 | 33845 ft | 363 kts | 212° |
| 2026-05-07 22:14 | 41.69064 | -73.84886 | 33847 ft | 360 kts | 214° |
| 2026-05-07 22:14 | 41.64492 | -73.87680 | 33836 ft | 360 kts | 213° |
| 2026-05-07 22:15 | 41.59880 | -73.90477 | 33833 ft | 361 kts | 214° |
| 2026-05-07 22:15 | 41.55269 | -73.93269 | 33840 ft | 361 kts | 214° |
| 2026-05-07 22:16 | 41.50663 | -73.96051 | 33836 ft | 361 kts | 214° |
| 2026-05-07 22:16 | 41.46035 | -73.98843 | 33834 ft | 360 kts | 214° |
| 2026-05-07 22:17 | 41.41419 | -74.01651 | 33833 ft | 357 kts | 217° |
| 2026-05-07 22:17 | 41.37442 | -74.05433 | 33835 ft | 347 kts | 225° |
| 2026-05-07 22:18 | 41.31662 | -74.11395 | 33835 ft | 346 kts | 225° |
| 2026-05-07 22:19 | 41.27796 | -74.15369 | 33832 ft | 346 kts | 225° |
| 2026-05-07 22:19 | 41.23947 | -74.19317 | 33829 ft | 345 kts | 225° |
| 2026-05-07 22:20 | 41.20140 | -74.23260 | 33835 ft | 342 kts | 228° |
| 2026-05-07 22:20 | 41.17297 | -74.28168 | 33843 ft | 331 kts | 242° |
| 2026-05-07 22:20 | 41.16102 | -74.30802 | 33686 ft | 329 kts | 242° |
| 2026-05-07 22:21 | 41.14900 | -74.33427 | 33308 ft | 331 kts | 242° |
| 2026-05-07 22:21 | 41.13684 | -74.36075 | 32852 ft | 334 kts | 242° |
| 2026-05-07 22:21 | 41.12468 | -74.38715 | 32500 ft | 335 kts | 242° |
| 2026-05-07 22:21 | 41.11247 | -74.41363 | 32152 ft | 335 kts | 242° |
| 2026-05-07 22:22 | 41.10017 | -74.44028 | 31819 ft | 336 kts | 242° |
| 2026-05-07 22:22 | 41.08783 | -74.46699 | 31413 ft | 337 kts | 242° |
| 2026-05-07 22:22 | 41.07550 | -74.49365 | 31016 ft | 338 kts | 242° |
| 2026-05-07 22:22 | 41.06316 | -74.52030 | 30656 ft | 339 kts | 242° |
| 2026-05-07 22:23 | 41.05061 | -74.54740 | 30175 ft | 342 kts | 242° |
| 2026-05-07 22:23 | 41.03820 | -74.57416 | 29781 ft | 343 kts | 242° |
| 2026-05-07 22:23 | 41.02537 | -74.60181 | 29295 ft | 345 kts | 241° |
| 2026-05-07 22:23 | 41.01275 | -74.62897 | 28856 ft | 347 kts | 241° |
| 2026-05-07 22:24 | 41.00003 | -74.65633 | 28492 ft | 350 kts | 240° |
| 2026-05-07 22:24 | 40.98768 | -74.68288 | 28299 ft | 351 kts | 241° |
| 2026-05-07 22:24 | 40.97511 | -74.70985 | 28097 ft | 352 kts | 241° |
| 2026-05-07 22:24 | 40.96249 | -74.73692 | 27902 ft | 352 kts | 241° |
| 2026-05-07 22:25 | 40.94992 | -74.76386 | 27868 ft | 349 kts | 241° |
| 2026-05-07 22:25 | 40.93715 | -74.79121 | 27857 ft | 345 kts | 240° |
| 2026-05-07 22:25 | 40.92445 | -74.81838 | 27860 ft | 341 kts | 241° |
| 2026-05-07 22:25 | 40.91199 | -74.84501 | 27855 ft | 338 kts | 240° |
| 2026-05-07 22:26 | 40.89997 | -74.87064 | 27848 ft | 335 kts | 241° |
| 2026-05-07 22:26 | 40.88737 | -74.89751 | 27860 ft | 335 kts | 241° |
| 2026-05-07 22:26 | 40.87498 | -74.92390 | 27871 ft | 337 kts | 241° |
| 2026-05-07 22:26 | 40.86306 | -74.94928 | 27861 ft | 338 kts | 241° |
| 2026-05-07 22:27 | 40.85074 | -74.97546 | 27863 ft | 337 kts | 241° |
| 2026-05-07 22:27 | 40.84041 | -74.99741 | 27858 ft | 336 kts | 241° |
| 2026-05-07 22:27 | 40.82673 | -75.02647 | 27860 ft | 335 kts | 241° |
| 2026-05-07 22:27 | 40.81433 | -75.05274 | 27817 ft | 336 kts | 241° |
| 2026-05-07 22:28 | 40.80171 | -75.07950 | 27514 ft | 337 kts | 241° |
| 2026-05-07 22:28 | 40.78928 | -75.10582 | 27220 ft | 338 kts | 241° |
| 2026-05-07 22:28 | 40.77666 | -75.13252 | 26920 ft | 338 kts | 241° |
| 2026-05-07 22:28 | 40.76419 | -75.15888 | 26623 ft | 339 kts | 241° |
| 2026-05-07 22:29 | 40.75155 | -75.18559 | 26320 ft | 339 kts | 241° |
| 2026-05-07 22:29 | 40.73887 | -75.21233 | 26012 ft | 340 kts | 240° |
| 2026-05-07 22:29 | 40.72622 | -75.23899 | 25708 ft | 340 kts | 240° |
| 2026-05-07 22:29 | 40.71358 | -75.26561 | 25402 ft | 341 kts | 241° |
| 2026-05-07 22:30 | 40.70079 | -75.29253 | 25097 ft | 341 kts | 241° |
| 2026-05-07 22:30 | 40.68817 | -75.31908 | 24791 ft | 341 kts | 241° |
| 2026-05-07 22:30 | 40.67538 | -75.34596 | 24476 ft | 340 kts | 240° |
| 2026-05-07 22:30 | 40.66277 | -75.37241 | 24167 ft | 338 kts | 240° |
| 2026-05-07 22:31 | 40.65099 | -75.39907 | 23856 ft | 336 kts | 243° |
| 2026-05-07 22:31 | 40.63944 | -75.42597 | 23541 ft | 333 kts | 243° |
| 2026-05-07 22:31 | 40.62790 | -75.45280 | 23221 ft | 331 kts | 243° |
| 2026-05-07 22:31 | 40.61664 | -75.47896 | 22908 ft | 329 kts | 243° |
| 2026-05-07 22:32 | 40.60513 | -75.50567 | 22588 ft | 327 kts | 243° |
| 2026-05-07 22:32 | 40.59404 | -75.53137 | 22274 ft | 326 kts | 242° |
| 2026-05-07 22:32 | 40.58269 | -75.55766 | 21958 ft | 324 kts | 243° |
| 2026-05-07 22:32 | 40.57137 | -75.58388 | 21639 ft | 323 kts | 242° |
| 2026-05-07 22:33 | 40.56017 | -75.60975 | 21319 ft | 322 kts | 242° |
| 2026-05-07 22:33 | 40.54902 | -75.63552 | 20998 ft | 321 kts | 242° |
| 2026-05-07 22:33 | 40.53784 | -75.66130 | 20689 ft | 320 kts | 242° |
| 2026-05-07 22:33 | 40.52719 | -75.68587 | 20402 ft | 319 kts | 242° |
| 2026-05-07 22:34 | 40.51844 | -75.70606 | 20161 ft | 318 kts | 242° |
| 2026-05-07 22:34 | 40.50677 | -75.73292 | 19890 ft | 316 kts | 242° |
| 2026-05-07 22:34 | 40.49558 | -75.75867 | 19870 ft | 307 kts | 242° |
| 2026-05-07 22:34 | 40.48484 | -75.78334 | 19870 ft | 300 kts | 242° |
| 2026-05-07 22:35 | 40.47458 | -75.80693 | 19867 ft | 294 kts | 242° |
| 2026-05-07 22:35 | 40.46435 | -75.83039 | 19846 ft | 287 kts | 242° |
| 2026-05-07 22:35 | 40.45456 | -75.85286 | 19868 ft | 281 kts | 242° |
| 2026-05-07 22:35 | 40.44462 | -75.87564 | 19878 ft | 276 kts | 242° |
| 2026-05-07 22:36 | 40.43298 | -75.89582 | 19854 ft | 276 kts | 229° |
| 2026-05-07 22:36 | 40.41919 | -75.91329 | 19867 ft | 272 kts | 229° |
| 2026-05-07 22:36 | 40.40544 | -75.93082 | 19875 ft | 274 kts | 229° |
| 2026-05-07 22:36 | 40.39158 | -75.94845 | 19870 ft | 275 kts | 229° |
| 2026-05-07 22:37 | 40.37755 | -75.96626 | 19870 ft | 277 kts | 229° |
| 2026-05-07 22:37 | 40.36363 | -75.98392 | 19872 ft | 278 kts | 229° |
| 2026-05-07 22:37 | 40.34934 | -76.00203 | 19866 ft | 279 kts | 229° |
| 2026-05-07 22:37 | 40.33519 | -76.01997 | 19872 ft | 280 kts | 229° |
| 2026-05-07 22:38 | 40.32108 | -76.03783 | 19864 ft | 281 kts | 229° |
| 2026-05-07 22:38 | 40.30679 | -76.05589 | 19867 ft | 282 kts | 229° |
| 2026-05-07 22:38 | 40.29263 | -76.07381 | 19868 ft | 283 kts | 229° |
| 2026-05-07 22:38 | 40.27841 | -76.09177 | 19863 ft | 283 kts | 229° |
| 2026-05-07 22:39 | 40.26403 | -76.10992 | 19866 ft | 284 kts | 229° |
| 2026-05-07 22:39 | 40.24976 | -76.12794 | 19865 ft | 284 kts | 229° |
| 2026-05-07 22:39 | 40.23534 | -76.14613 | 19860 ft | 285 kts | 229° |
| 2026-05-07 22:39 | 40.22087 | -76.16436 | 19861 ft | 285 kts | 229° |
| 2026-05-07 22:40 | 40.20652 | -76.18243 | 19864 ft | 285 kts | 229° |
| 2026-05-07 22:40 | 40.19234 | -76.20027 | 19833 ft | 273 kts | 229° |
| 2026-05-07 22:40 | 40.17872 | -76.21742 | 19459 ft | 273 kts | 229° |
| 2026-05-07 22:40 | 40.16474 | -76.23502 | 18979 ft | 275 kts | 229° |
| 2026-05-07 22:41 | 40.15093 | -76.25236 | 18706 ft | 273 kts | 229° |
| 2026-05-07 22:41 | 40.13704 | -76.26980 | 18378 ft | 270 kts | 229° |
| 2026-05-07 22:41 | 40.12352 | -76.28683 | 17973 ft | 269 kts | 230° |
| 2026-05-07 22:41 | 40.11279 | -76.30675 | 17562 ft | 265 kts | 242° |
| 2026-05-07 22:42 | 40.10325 | -76.32755 | 17220 ft | 263 kts | 242° |
| 2026-05-07 22:42 | 40.09378 | -76.34808 | 16821 ft | 263 kts | 242° |
| 2026-05-07 22:42 | 40.08423 | -76.36880 | 16450 ft | 262 kts | 242° |
| 2026-05-07 22:42 | 40.07477 | -76.38930 | 16079 ft | 261 kts | 242° |
| 2026-05-07 22:43 | 40.06530 | -76.40981 | 15690 ft | 261 kts | 242° |
| 2026-05-07 22:43 | 40.05600 | -76.42996 | 15376 ft | 259 kts | 242° |
| 2026-05-07 22:43 | 40.04662 | -76.45023 | 15078 ft | 258 kts | 242° |
| 2026-05-07 22:43 | 40.03729 | -76.47041 | 14730 ft | 258 kts | 242° |
| 2026-05-07 22:44 | 40.02795 | -76.49060 | 14392 ft | 258 kts | 242° |
| 2026-05-07 22:44 | 40.01874 | -76.51047 | 14106 ft | 255 kts | 242° |
| 2026-05-07 22:44 | 40.00952 | -76.53036 | 14002 ft | 247 kts | 242° |
| 2026-05-07 22:44 | 40.00057 | -76.54968 | 14004 ft | 250 kts | 242° |
| 2026-05-07 22:45 | 39.99134 | -76.56956 | 14001 ft | 254 kts | 242° |
| 2026-05-07 22:45 | 39.98212 | -76.58944 | 14004 ft | 257 kts | 242° |
| 2026-05-07 22:45 | 39.97257 | -76.61001 | 14006 ft | 261 kts | 242° |
| 2026-05-07 22:45 | 39.96318 | -76.63020 | 14006 ft | 264 kts | 242° |
| 2026-05-07 22:46 | 39.95375 | -76.65045 | 14002 ft | 264 kts | 241° |
| 2026-05-07 22:46 | 39.94421 | -76.67094 | 14012 ft | 264 kts | 242° |
| 2026-05-07 22:46 | 39.93570 | -76.68924 | 14009 ft | 262 kts | 241° |
| 2026-05-07 22:46 | 39.92602 | -76.70998 | 14011 ft | 259 kts | 241° |
| 2026-05-07 22:47 | 39.91682 | -76.72971 | 14012 ft | 257 kts | 242° |
| 2026-05-07 22:47 | 39.90749 | -76.74971 | 14015 ft | 255 kts | 242° |
| 2026-05-07 22:47 | 39.89813 | -76.76975 | 14010 ft | 253 kts | 242° |
| 2026-05-07 22:47 | 39.88914 | -76.78899 | 14017 ft | 254 kts | 242° |
| 2026-05-07 22:48 | 39.88009 | -76.80835 | 14024 ft | 257 kts | 242° |
| 2026-05-07 22:48 | 39.87081 | -76.82819 | 14016 ft | 260 kts | 241° |
| 2026-05-07 22:48 | 39.86145 | -76.84817 | 14028 ft | 262 kts | 242° |
| 2026-05-07 22:48 | 39.85192 | -76.86853 | 14007 ft | 262 kts | 242° |
| 2026-05-07 22:49 | 39.84304 | -76.88746 | 14022 ft | 262 kts | 241° |
| 2026-05-07 22:49 | 39.83403 | -76.90667 | 14033 ft | 262 kts | 242° |
| 2026-05-07 22:49 | 39.82456 | -76.92686 | 14042 ft | 261 kts | 241° |
| 2026-05-07 22:49 | 39.81514 | -76.94690 | 13918 ft | 255 kts | 242° |
| 2026-05-07 22:50 | 39.80580 | -76.96678 | 13547 ft | 256 kts | 242° |
| 2026-05-07 22:50 | 39.79651 | -76.98657 | 13123 ft | 258 kts | 242° |
| 2026-05-07 22:50 | 39.78705 | -77.00668 | 12786 ft | 258 kts | 242° |
| 2026-05-07 22:50 | 39.77758 | -77.02680 | 12436 ft | 259 kts | 242° |
| 2026-05-07 22:51 | 39.76812 | -77.04689 | 12062 ft | 260 kts | 242° |
| 2026-05-07 22:51 | 39.75858 | -77.06712 | 11766 ft | 260 kts | 242° |
| 2026-05-07 22:51 | 39.74903 | -77.08736 | 11376 ft | 261 kts | 242° |
| 2026-05-07 22:51 | 39.73938 | -77.10782 | 10989 ft | 261 kts | 242° |
| 2026-05-07 22:52 | 39.72975 | -77.12818 | 10650 ft | 262 kts | 242° |
| 2026-05-07 22:52 | 39.72026 | -77.14827 | 10371 ft | 261 kts | 242° |
| 2026-05-07 22:52 | 39.71056 | -77.16877 | 10031 ft | 259 kts | 242° |
| 2026-05-07 22:52 | 39.70134 | -77.18824 | 10007 ft | 251 kts | 242° |
| 2026-05-07 22:53 | 39.69212 | -77.20770 | 10047 ft | 247 kts | 242° |
| 2026-05-07 22:53 | 39.68243 | -77.22652 | 10002 ft | 251 kts | 232° |
| 2026-05-07 22:53 | 39.66954 | -77.24233 | 9914 ft | 249 kts | 227° |
| 2026-05-07 22:53 | 39.65678 | -77.25770 | 9527 ft | 254 kts | 227° |
| 2026-05-07 22:54 | 39.64341 | -77.27378 | 9080 ft | 257 kts | 227° |
| 2026-05-07 22:54 | 39.63050 | -77.28925 | 9026 ft | 250 kts | 227° |
| 2026-05-07 22:54 | 39.61743 | -77.30497 | 9033 ft | 256 kts | 227° |
| 2026-05-07 22:54 | 39.60400 | -77.32109 | 9019 ft | 259 kts | 227° |
| 2026-05-07 22:55 | 39.59055 | -77.33722 | 9045 ft | 263 kts | 227° |
| 2026-05-07 22:55 | 39.57700 | -77.35346 | 9020 ft | 264 kts | 227° |
| 2026-05-07 22:55 | 39.56243 | -77.36797 | 9022 ft | 261 kts | 214° |
| 2026-05-07 22:55 | 39.54666 | -77.37972 | 9019 ft | 254 kts | 216° |
| 2026-05-07 22:56 | 39.53131 | -77.39150 | 9022 ft | 256 kts | 216° |
| 2026-05-07 22:56 | 39.51575 | -77.40353 | 9029 ft | 259 kts | 216° |
| 2026-05-07 22:56 | 39.50000 | -77.41576 | 9033 ft | 263 kts | 216° |
| 2026-05-07 22:56 | 39.48408 | -77.42814 | 9037 ft | 265 kts | 216° |
| 2026-05-07 22:57 | 39.46792 | -77.44070 | 9025 ft | 268 kts | 216° |
| 2026-05-07 22:57 | 39.45095 | -77.45116 | 9020 ft | 273 kts | 198° |
| 2026-05-07 22:57 | 39.43153 | -77.45277 | 8818 ft | 280 kts | 185° |
| 2026-05-07 22:57 | 39.41183 | -77.45290 | 8552 ft | 280 kts | 185° |
| 2026-05-07 22:58 | 39.39209 | -77.45316 | 8245 ft | 280 kts | 186° |
| 2026-05-07 22:58 | 39.37243 | -77.45345 | 7936 ft | 277 kts | 185° |
| 2026-05-07 22:58 | 39.35311 | -77.45373 | 7623 ft | 272 kts | 185° |
| 2026-05-07 22:58 | 39.33412 | -77.45442 | 7328 ft | 268 kts | 184° |
| 2026-05-07 22:59 | 39.31523 | -77.45448 | 7025 ft | 265 kts | 184° |
| 2026-05-07 22:59 | 39.29668 | -77.45454 | 6697 ft | 264 kts | 184° |
| 2026-05-07 22:59 | 39.27792 | -77.45473 | 6350 ft | 263 kts | 184° |
| 2026-05-07 22:59 | 39.25933 | -77.45512 | 5993 ft | 263 kts | 184° |
| 2026-05-07 23:00 | 39.24070 | -77.45544 | 5627 ft | 264 kts | 184° |
| 2026-05-07 23:00 | 39.22212 | -77.45572 | 5259 ft | 265 kts | 183° |
| 2026-05-07 23:00 | 39.20334 | -77.45601 | 4885 ft | 269 kts | 183° |
| 2026-05-07 23:00 | 39.18420 | -77.45628 | 4500 ft | 272 kts | 182° |
| 2026-05-07 23:01 | 39.16505 | -77.45656 | 4115 ft | 272 kts | 182° |
| 2026-05-07 23:01 | 39.14591 | -77.45683 | 3730 ft | 272 kts | 182° |
| 2026-05-07 23:01 | 39.12674 | -77.45711 | 3346 ft | 271 kts | 182° |
| 2026-05-07 23:01 | 39.10782 | -77.45737 | 2949 ft | 259 kts | 182° |
| 2026-05-07 23:02 | 39.09023 | -77.45762 | 2649 ft | 245 kts | 182° |
| 2026-05-07 23:02 | 39.07424 | -77.45785 | 2308 ft | 213 kts | 182° |
| 2026-05-07 23:02 | 39.06047 | -77.45805 | 2026 ft | 189 kts | 182° |
| 2026-05-07 23:02 | 39.04783 | -77.45821 | 1779 ft | 173 kts | 182° |
| 2026-05-07 23:03 | 39.03611 | -77.45834 | 1581 ft | 159 kts | 182° |
| 2026-05-07 23:03 | 39.02517 | -77.45855 | 1357 ft | 155 kts | 182° |
| 2026-05-07 23:03 | 39.01440 | -77.45871 | 1146 ft | 149 kts | 182° |
| 2026-05-07 23:03 | 39.00418 | -77.45885 | 949 ft | 141 kts | 182° |
| 2026-05-07 23:04 | 38.99463 | -77.45899 | 766 ft | 131 kts | 182° |
| 2026-05-07 23:04 | 38.98538 | -77.45914 | 618 ft | 135 kts | 182° |
| 2026-05-07 23:04 | 38.97622 | -77.45925 | 437 ft | 131 kts | 181° |
| 2026-05-07 23:04 | 38.96719 | -77.45937 | 287 ft | 127 kts | 181° |
| 2026-05-07 23:05 | 38.95894 | -77.45951 | 277 ft | 100 kts | 181° |
| 2026-05-07 23:05 | 38.95363 | -77.45958 | 280 ft | 51 kts | 181° |
| 2026-05-07 23:05 | 38.95088 | -77.45942 | 283 ft | 33 kts | 168° |
| 2026-05-07 23:05 | 38.94880 | -77.45824 | 285 ft | 29 kts | 151° |
| 2026-05-07 23:06 | 38.94784 | -77.45747 | 287 ft | 11 kts | 134° |
| 2026-05-07 23:06 | 38.94758 | -77.45640 | 289 ft | 13 kts | 99° |
| 2026-05-07 23:06 | 38.94735 | -77.45514 | 290 ft | 15 kts | 88° |
| 2026-05-07 23:06 | 38.94735 | -77.45386 | 291 ft | 11 kts | 91° |
| 2026-05-07 23:07 | 38.94734 | -77.45277 | 291 ft | 12 kts | 91° |
| 2026-05-07 23:07 | 38.94733 | -77.45184 | 292 ft | 5 kts | 90° |
| 2026-05-07 23:07 | 38.94733 | -77.45135 | 292 ft | 5 kts | 91° |
| 2026-05-07 23:07 | 38.94732 | -77.45074 | 293 ft | 9 kts | 91° |
| 2026-05-07 23:08 | 38.94731 | -77.44967 | 293 ft | 14 kts | 91° |
| 2026-05-07 23:08 | 38.94730 | -77.44825 | 294 ft | 16 kts | 91° |
| 2026-05-07 23:08 | 38.94729 | -77.44688 | 294 ft | 13 kts | 90° |
| 2026-05-07 23:08 | 38.94728 | -77.44572 | 295 ft | 12 kts | 90° |
| 2026-05-07 23:09 | 38.94727 | -77.44466 | 295 ft | 11 kts | 91° |
| 2026-05-07 23:09 | 38.94726 | -77.44363 | 296 ft | 11 kts | 91° |
| 2026-05-07 23:09 | 38.94725 | -77.44254 | 296 ft | 12 kts | 90° |
| 2026-05-07 23:09 | 38.94724 | -77.44141 | 297 ft | 12 kts | 91° |
| 2026-05-07 23:10 | 38.94730 | -77.44090 | 297 ft | 4 kts | 59° |
| 2026-05-07 23:10 | 38.94759 | -77.44070 | 297 ft | 6 kts | 9° |
| 2026-05-07 23:10 | 38.94790 | -77.44081 | 297 ft | 3 kts | 327° |
| 2026-05-07 23:10 | 38.94796 | -77.44087 | 297 ft | 1 kts | 323° |
| 2026-05-07 23:11 | 38.94803 | -77.44094 | 296 ft | 0 kts | 322° |